LFBZ/BIQ METAR and TAF weather

Enter ICAO airport designator
Station Type Date Time Source
LFBZ METAR 2022/01/29 00:30 UTC NOAA

LFBZ 290030Z AUTO 14001KT 1500 0900 R09/2000D R27/1700U BCFG BKN027 02/02 Q1037 TEMPO 0500 FG VV///


Station Type Date Time Source
LFBZ Decoded METAR 2022/01/29 00:30 UTC NOAA

Biarritz, France (LFBZ) 43-28N 001-32W 71M
Jan 28, 2022 - 07:30 PM EST / 2022.01.29 0030 UTC
Wind: from the SE (140 degrees) at 1 MPH (1 KT):0
Visibility: less than 1 mile:0
Sky conditions: mostly cloudy
Weather: patches of fog
Temperature: 35 F (2 C)
Dew Point: 35 F (2 C)
Relative Humidity: 100%
Pressure (altimeter): 30.62 in. Hg (1037 hPa)
ob: LFBZ 290030Z AUTO 14001KT 1500 0900 R09/2000D R27/1700U BCFG BKN027 02/02 Q1037 TEMPO 0500 FG VV///
cycle: 0

Station Type Date Time Source
LFBZ TAF 2022/01/28 18:22 UTC NOAA

TAF LFBZ 281700Z 2818/2918 VRB03KT 9999 FEW025
TEMPO 2818/2820 BKN007
BECMG 2820/2822 05005KT 3000 BR BKN005 PROB40 2821/2910 0500 FG VV///
BECMG 2913/2915 CAVOK

Example: see airport list